Strona główna
METAR-TAF:

METAR-TAF

Lotnisko :

Wings Field

Filadelfia / Blue Bell, Pensylwania, Stany Zjednoczone

Szerokość geograficzna: 40-08-15N, Długość geograficzna: 075-15-54W, wysokość: 92 m

Aktualna obserwacja pogody

Raport powstał 20 minut temu, godzina 19:15 UTC
Wiatr 8 kt od południowo-południowy zachód
Temperatura 5°C
Wilgotność 38%
Ciśnienie 1030 hPa
Widzialność: 16.1 km
bezchmurnie

METAR: KLOM 081915Z AUTO 20008KT 10SM CLR 05/M08 A3043 RMK AO2 T00481077

czas: 14:35 (19:35 UTC)


TAF: brakujący

Obserwacja i prognoza pogody dla ponad 4000 lotnisk (raport METAR i TAF).

Dostępne stacje oznaczono żółtymi i czerwonymi punktami na mapie.

Najedź kursorem aby zobaczyć nazwę stacji.

Kliknij aby zobaczyć obserwacje i prognozy pogody.

Aby zmienić mapę: kliknij na zielony przycisk z czarnym krzyżykiem, aby powiększyć; na zielony przycisk z myślnikiem, aby pomniejszyć; na zielone strzałki, aby przejść do map sąsiednich.


METAR-TAF: